Time;durP1;ratioP1;P1;durP2;ratioP2;P2;SDS_P1;SDS_P2;PMS_P1;PMS_P2;Temp;Humidity;BMP_temperature;BMP_pressure;BME280_temperature;BME280_humidity;BME280_pressure;Samples;Min_cycle;Max_cycle;Signal;HPM_P1;HPM_P2
2021/11/23 00:02:12;;;;;;;11.27;10.20;;;9.20;99.90;;;;;;5092896;28;20213;-69
2021/11/23 00:04:43;;;;;;;12.07;10.35;;;9.10;99.90;;;;;;5092059;28;20457;-69
2021/11/23 00:07:14;;;;;;;12.68;10.68;;;9.00;99.90;;;;;;5104805;28;20208;-68
2021/11/23 00:09:45;;;;;;;12.65;11.30;;;9.10;99.90;;;;;;5091046;28;20663;-68
2021/11/23 00:12:15;;;;;;;12.43;11.00;;;9.10;99.90;;;;;;5092593;28;20646;-69
2021/11/23 00:14:47;;;;;;;12.88;11.48;;;9.00;99.90;;;;;;5087213;28;20214;-68
2021/11/23 00:17:20;;;;;;;14.13;11.82;;;9.10;99.90;;;;;;5081308;28;20235;-69
2021/11/23 00:19:51;;;;;;;12.52;11.00;;;9.00;99.90;;;;;;5087177;28;20539;-71
2021/11/23 00:22:22;;;;;;;12.18;10.98;;;9.10;99.90;;;;;;5092322;28;20339;-70
2021/11/23 00:24:53;;;;;;;12.70;11.40;;;9.10;99.90;;;;;;5088214;28;20236;-69
2021/11/23 00:27:23;;;;;;;13.27;11.57;;;8.90;99.90;;;;;;5104496;28;20457;-69
2021/11/23 00:29:55;;;;;;;12.55;11.30;;;8.80;99.90;;;;;;5089893;28;20698;-69
2021/11/23 00:32:27;;;;;;;12.60;11.30;;;8.70;99.90;;;;;;5104630;28;20256;-69
2021/11/23 00:34:58;;;;;;;11.73;10.52;;;8.80;99.90;;;;;;5086937;28;20658;-69
2021/11/23 00:37:29;;;;;;;11.77;10.57;;;8.90;99.90;;;;;;5106644;28;20569;-69
2021/11/23 00:40:00;;;;;;;10.80;9.45;;;8.80;99.90;;;;;;5088854;28;20243;-69
2021/11/23 00:42:30;;;;;;;12.48;10.10;;;8.70;99.90;;;;;;5101687;28;20216;-69
2021/11/23 00:45:01;;;;;;;11.20;10.00;;;8.80;99.90;;;;;;5088820;28;20208;-69
2021/11/23 00:47:34;;;;;;;12.05;10.25;;;8.90;99.90;;;;;;5092021;28;20215;-69
2021/11/23 00:50:06;;;;;;;12.27;10.57;;;8.70;99.90;;;;;;5074430;28;20220;-69
2021/11/23 00:52:38;;;;;;;11.90;10.25;;;8.70;99.90;;;;;;5086147;28;20700;-69
2021/11/23 00:55:10;;;;;;;13.38;10.48;;;8.70;99.90;;;;;;5093574;28;20211;-69
2021/11/23 00:57:41;;;;;;;13.45;10.48;;;8.70;99.90;;;;;;5088313;28;20221;-69
2021/11/23 01:00:14;;;;;;;11.20;9.93;;;8.60;99.90;;;;;;5082199;28;20573;-69
2021/11/23 01:02:47;;;;;;;11.38;10.18;;;8.60;99.90;;;;;;5072285;28;20479;-71
2021/11/23 01:05:18;;;;;;;12.63;10.20;;;8.70;99.90;;;;;;5099867;28;20621;-69
2021/11/23 01:07:49;;;;;;;12.80;10.60;;;8.60;99.90;;;;;;5087896;28;20215;-69
2021/11/23 01:10:24;;;;;;;10.55;9.63;;;8.60;99.90;;;;;;5090409;28;20208;-75
2021/11/23 01:12:56;;;;;;;12.40;11.15;;;8.60;99.90;;;;;;5082785;28;20239;-74
2021/11/23 01:15:31;;;;;;;12.02;10.82;;;8.60;99.90;;;;;;5090215;28;20239;-73
2021/11/23 01:18:12;;;;;;;11.50;10.40;;;8.60;99.90;;;;;;5086551;28;20232;-72
2021/11/23 01:20:43;;;;;;;12.48;11.02;;;8.70;99.90;;;;;;5085933;28;20516;-78
2021/11/23 01:23:23;;;;;;;11.13;10.02;;;8.70;99.90;;;;;;5082108;28;20216;-72
2021/11/23 01:25:55;;;;;;;10.60;9.50;;;8.70;99.90;;;;;;5087134;28;20220;-72
2021/11/23 01:28:27;;;;;;;11.90;10.75;;;8.60;99.90;;;;;;5099349;28;20299;-71
2021/11/23 01:31:02;;;;;;;11.38;10.23;;;8.50;99.90;;;;;;5100152;28;20207;-73
2021/11/23 01:33:35;;;;;;;10.50;9.40;;;8.60;99.90;;;;;;5089465;28;20222;-72
2021/11/23 01:36:06;;;;;;;10.95;9.75;;;8.60;99.90;;;;;;5088908;28;20227;-69
2021/11/23 01:38:49;;;;;;;11.00;9.80;;;8.50;99.90;;;;;;5086352;28;20298;-71
2021/11/23 01:41:35;;;;;;;10.55;9.55;;;8.60;99.90;;;;;;5082277;28;20223;-72
2021/11/23 01:44:14;;;;;;;11.45;10.25;;;8.50;99.90;;;;;;5082602;28;20645;-73
2021/11/23 01:55:31;;;;;;;11.45;9.63;;;8.40;99.90;;;;;;5096502;28;20270;-77
2021/11/23 01:58:03;;;;;;;12.15;9.85;;;8.20;99.90;;;;;;5084263;28;20239;-74
2021/11/23 02:00:38;;;;;;;10.52;9.30;;;8.20;99.90;;;;;;5084373;28;20234;-71
2021/11/23 02:03:10;;;;;;;12.13;10.35;;;8.20;99.90;;;;;;5101690;28;20243;-70
2021/11/23 02:06:00;;;;;;;11.32;9.60;;;8.20;99.90;;;;;;5097142;28;20614;-78
2021/11/23 02:08:32;;;;;;;13.20;10.25;;;8.30;99.90;;;;;;5094526;28;20218;-74
2021/11/23 02:15:32;;;;;;;11.18;10.07;;;8.50;99.90;;;;;;5079408;28;20400;-78
2021/11/23 02:18:23;;;;;;;12.55;11.05;;;8.40;99.90;;;;;;5083030;28;20711;-72
2021/11/23 02:20:57;;;;;;;12.77;9.30;;;8.40;99.90;;;;;;5078566;28;20226;-75
2021/11/23 02:23:28;;;;;;;10.35;9.35;;;8.40;99.90;;;;;;5086923;28;20219;-68
2021/11/23 02:26:02;;;;;;;10.93;9.77;;;8.40;99.90;;;;;;5089200;28;20227;-74
2021/11/23 02:28:33;;;;;;;11.50;10.30;;;8.30;99.90;;;;;;5101142;28;20228;-69
2021/11/23 02:31:05;;;;;;;13.70;11.93;;;8.40;99.90;;;;;;5095067;28;20646;-71
2021/11/23 02:33:37;;;;;;;13.20;11.30;;;8.50;99.90;;;;;;5088102;28;20219;-71
2021/11/23 02:36:11;;;;;;;11.52;10.40;;;8.40;99.90;;;;;;5080102;28;20221;-71
2021/11/23 02:38:42;;;;;;;11.93;10.65;;;8.40;99.90;;;;;;5086987;28;20236;-73
2021/11/23 02:41:14;;;;;;;11.77;10.18;;;8.40;99.90;;;;;;5088644;28;20591;-71
2021/11/23 02:43:46;;;;;;;12.02;10.20;;;8.50;99.90;;;;;;5087760;28;20215;-72
2021/11/23 02:46:17;;;;;;;12.68;10.43;;;8.40;99.90;;;;;;5086540;28;20295;-71
2021/11/23 02:48:50;;;;;;;12.65;11.13;;;8.50;99.90;;;;;;5083535;28;20729;-72
2021/11/23 02:51:23;;;;;;;11.52;10.43;;;8.40;99.90;;;;;;5086918;28;20219;-74
2021/11/23 02:53:56;;;;;;;14.35;11.80;;;8.40;99.90;;;;;;5085000;28;20269;-74
2021/11/23 02:56:28;;;;;;;12.93;11.52;;;8.30;99.90;;;;;;5084688;28;20212;-75
2021/11/23 02:59:03;;;;;;;12.77;10.70;;;8.30;99.90;;;;;;5090302;28;20720;-74
2021/11/23 03:01:34;;;;;;;12.32;10.55;;;8.30;99.90;;;;;;5088194;28;20217;-75
2021/11/23 03:04:05;;;;;;;12.82;11.43;;;8.40;99.90;;;;;;5091536;28;20223;-74
2021/11/23 03:06:38;;;;;;;12.77;11.35;;;8.40;99.90;;;;;;5090724;28;20209;-73
2021/11/23 03:09:12;;;;;;;14.25;12.75;;;8.50;99.90;;;;;;5093881;28;20218;-76
2021/11/23 03:11:43;;;;;;;15.98;13.10;;;8.50;99.90;;;;;;5098522;28;20208;-72
2021/11/23 03:14:17;;;;;;;13.80;12.32;;;8.40;99.90;;;;;;5091941;28;20637;-74
2021/11/23 03:16:48;;;;;;;13.32;11.98;;;8.30;99.90;;;;;;5078440;28;20302;-73
2021/11/23 03:19:19;;;;;;;13.75;12.40;;;8.20;99.90;;;;;;5089502;28;20243;-72
2021/11/23 03:21:51;;;;;;;13.52;10.95;;;8.20;99.90;;;;;;5093609;28;20213;-74
2021/11/23 03:24:23;;;;;;;13.82;12.50;;;8.20;99.90;;;;;;5089523;28;20220;-74
2021/11/23 03:26:57;;;;;;;14.70;12.98;;;8.20;99.90;;;;;;5090009;28;21374;-75
2021/11/23 03:29:34;;;;;;;13.00;11.70;;;8.40;99.90;;;;;;5090250;28;20235;-78
2021/11/23 03:32:09;;;;;;;12.88;11.68;;;8.30;99.90;;;;;;5089081;28;20306;-75
2021/11/23 03:34:42;;;;;;;14.50;12.55;;;8.30;99.90;;;;;;5090994;28;20240;-76
2021/11/23 03:37:18;;;;;;;12.82;11.63;;;8.40;99.90;;;;;;5091742;28;20222;-74
2021/11/23 03:39:50;;;;;;;16.08;13.48;;;8.40;99.90;;;;;;5091284;28;20227;-75
2021/11/23 03:42:24;;;;;;;17.85;15.40;;;8.30;99.90;;;;;;5091282;28;20228;-74
2021/11/23 03:44:58;;;;;;;17.75;15.68;;;8.20;99.90;;;;;;5090799;28;20622;-74
2021/11/23 03:47:35;;;;;;;19.70;16.63;;;8.30;99.90;;;;;;5090164;28;20670;-73
2021/11/23 03:50:09;;;;;;;17.55;15.63;;;8.30;99.90;;;;;;5085480;28;20682;-74
2021/11/23 03:52:41;;;;;;;19.15;16.02;;;8.30;99.90;;;;;;5091784;28;20205;-72
2021/11/23 03:55:17;;;;;;;17.33;14.45;;;8.10;99.90;;;;;;5090216;28;20208;-73
2021/11/23 03:57:51;;;;;;;17.38;15.50;;;8.20;99.90;;;;;;5090000;28;20307;-73
2021/11/23 04:00:24;;;;;;;16.88;15.13;;;8.20;99.90;;;;;;5090495;28;20611;-73
2021/11/23 04:02:55;;;;;;;16.90;15.10;;;8.20;99.90;;;;;;5090726;28;20291;-72
2021/11/23 04:05:26;;;;;;;17.23;15.38;;;8.30;99.90;;;;;;5096737;28;20208;-72
2021/11/23 04:07:59;;;;;;;20.23;16.77;;;8.30;99.90;;;;;;5091485;28;20232;-72
2021/11/23 04:10:30;;;;;;;19.35;16.63;;;8.30;99.90;;;;;;5095674;28;20212;-72
2021/11/23 04:13:01;;;;;;;20.70;16.95;;;8.20;99.90;;;;;;5093002;28;20212;-73
2021/11/23 04:15:32;;;;;;;20.05;17.58;;;8.30;99.90;;;;;;5089052;28;20212;-73
2021/11/23 04:18:03;;;;;;;17.65;15.85;;;8.20;99.90;;;;;;5087302;28;20227;-73
2021/11/23 04:20:34;;;;;;;19.83;16.80;;;8.10;99.90;;;;;;5090374;28;20752;-73
2021/11/23 04:23:07;;;;;;;18.45;15.70;;;8.10;99.90;;;;;;5087249;28;20219;-73
2021/11/23 04:25:38;;;;;;;23.52;17.05;;;8.10;99.90;;;;;;5085422;28;20209;-73
2021/11/23 04:28:09;;;;;;;18.38;16.38;;;8.10;99.90;;;;;;5083039;28;20216;-76
2021/11/23 04:30:40;;;;;;;21.00;16.60;;;8.10;99.90;;;;;;5088539;28;20216;-74
2021/11/23 04:33:14;;;;;;;19.33;15.88;;;8.10;99.90;;;;;;5087521;28;20556;-73
2021/11/23 04:35:46;;;;;;;17.50;15.60;;;8.10;99.90;;;;;;5089848;28;20243;-74
2021/11/23 04:38:18;;;;;;;18.48;15.75;;;7.90;99.90;;;;;;5088862;28;20207;-74
2021/11/23 04:40:49;;;;;;;19.70;14.50;;;7.80;99.90;;;;;;5088954;28;20219;-73
2021/11/23 04:43:23;;;;;;;15.50;13.50;;;7.80;99.90;;;;;;5090748;28;20208;-74
2021/11/23 04:45:56;;;;;;;20.85;15.82;;;7.70;99.90;;;;;;5086955;28;20212;-74
2021/11/23 04:48:27;;;;;;;23.65;17.73;;;7.70;99.90;;;;;;5086574;28;20553;-74
2021/11/23 04:50:58;;;;;;;20.75;17.10;;;7.70;99.90;;;;;;5088123;28;20232;-74
2021/11/23 04:53:30;;;;;;;19.63;15.68;;;7.50;99.90;;;;;;5086374;28;20212;-73
2021/11/23 04:56:01;;;;;;;17.67;15.80;;;7.60;99.90;;;;;;5087901;28;20224;-73
2021/11/23 04:58:35;;;;;;;18.08;16.23;;;7.50;99.90;;;;;;5087517;28;20228;-72
2021/11/23 05:01:06;;;;;;;18.25;15.18;;;7.60;99.90;;;;;;5085235;28;20219;-72
2021/11/23 05:03:37;;;;;;;19.30;17.15;;;7.60;99.90;;;;;;5090604;28;20228;-72
2021/11/23 05:06:08;;;;;;;17.88;15.98;;;7.60;99.90;;;;;;5087821;28;20331;-72
2021/11/23 05:08:40;;;;;;;19.48;16.10;;;7.50;99.90;;;;;;5088332;28;20670;-72
2021/11/23 05:11:12;;;;;;;18.65;15.48;;;7.40;99.90;;;;;;5087250;28;20213;-72
2021/11/23 05:13:43;;;;;;;20.23;15.68;;;7.40;99.90;;;;;;5094349;28;20204;-72
2021/11/23 05:16:14;;;;;;;18.80;16.25;;;7.50;99.90;;;;;;5086544;28;20231;-72
2021/11/23 05:18:45;;;;;;;23.98;15.55;;;7.50;99.90;;;;;;5089663;28;20224;-72
2021/11/23 05:21:16;;;;;;;18.92;16.08;;;7.50;99.90;;;;;;5084865;28;20208;-72
2021/11/23 05:23:49;;;;;;;23.02;17.75;;;7.50;99.90;;;;;;5088422;28;20228;-72
2021/11/23 05:26:20;;;;;;;19.92;17.48;;;7.50;99.90;;;;;;5085908;28;20220;-72
2021/11/23 05:28:50;;;;;;;19.98;17.38;;;7.40;99.90;;;;;;5088468;28;20232;-72
2021/11/23 05:31:21;;;;;;;21.58;17.60;;;7.50;99.90;;;;;;5086581;28;20212;-72
2021/11/23 05:33:52;;;;;;;22.90;17.85;;;7.40;99.90;;;;;;5089298;28;20291;-72
2021/11/23 05:36:23;;;;;;;20.52;16.73;;;7.30;99.90;;;;;;5087599;28;20241;-72
2021/11/23 05:38:56;;;;;;;24.90;18.20;;;7.30;99.90;;;;;;5089131;28;20247;-73
2021/11/23 05:41:27;;;;;;;21.35;17.42;;;7.20;99.90;;;;;;5087961;28;20205;-72
2021/11/23 05:43:58;;;;;;;19.60;16.95;;;7.20;99.90;;;;;;5087857;28;20685;-72
2021/11/23 05:46:29;;;;;;;22.83;17.58;;;7.20;99.90;;;;;;5087010;28;20600;-72
2021/11/23 05:49:01;;;;;;;20.85;17.67;;;7.30;99.90;;;;;;5076580;28;20680;-74
2021/11/23 05:51:32;;;;;;;24.77;17.42;;;7.30;99.90;;;;;;5093373;28;20219;-72
2021/11/23 05:54:05;;;;;;;19.98;17.88;;;7.30;99.90;;;;;;5103183;28;20227;-70
2021/11/23 05:56:36;;;;;;;22.88;18.00;;;7.30;99.90;;;;;;5095217;28;20580;-70
2021/11/23 05:59:07;;;;;;;20.90;18.58;;;7.40;99.90;;;;;;5071865;28;20236;-70
2021/11/23 06:01:37;;;;;;;20.20;18.02;;;7.40;99.90;;;;;;5083070;28;20732;-70
2021/11/23 06:04:08;;;;;;;21.35;16.92;;;7.40;99.90;;;;;;5087015;28;20290;-72
2021/11/23 06:06:40;;;;;;;21.80;18.42;;;7.30;99.90;;;;;;5085931;28;20720;-72
2021/11/23 06:09:12;;;;;;;22.85;17.40;;;7.20;99.90;;;;;;5089126;28;20325;-72
2021/11/23 06:11:43;;;;;;;20.73;17.55;;;7.30;99.90;;;;;;5087885;28;20227;-73
2021/11/23 06:14:14;;;;;;;22.60;19.05;;;7.20;99.90;;;;;;5087686;28;20718;-73
2021/11/23 06:16:46;;;;;;;21.30;17.40;;;7.30;99.90;;;;;;5088813;28;20219;-73
2021/11/23 06:19:17;;;;;;;24.13;19.45;;;7.30;99.90;;;;;;5087065;28;20224;-73
2021/11/23 06:21:48;;;;;;;28.85;20.55;;;7.40;99.90;;;;;;5085983;28;20649;-72
2021/11/23 06:24:20;;;;;;;24.42;20.50;;;7.30;99.90;;;;;;5087222;28;20256;-71
2021/11/23 06:26:51;;;;;;;25.65;21.52;;;7.30;99.90;;;;;;5085455;28;20399;-71
2021/11/23 06:29:22;;;;;;;28.58;23.77;;;7.30;99.90;;;;;;5084428;28;20236;-71
2021/11/23 06:31:53;;;;;;;25.35;21.10;;;7.30;99.90;;;;;;5085559;28;20235;-71
2021/11/23 06:34:24;;;;;;;25.88;21.20;;;7.30;99.90;;;;;;5091197;28;20231;-71
2021/11/23 06:36:55;;;;;;;27.15;23.17;;;7.30;99.90;;;;;;5092290;28;20478;-71
2021/11/23 06:39:28;;;;;;;29.23;22.73;;;7.30;99.90;;;;;;5091860;28;20238;-72
2021/11/23 06:41:58;;;;;;;26.60;21.90;;;7.30;99.90;;;;;;5090051;28;20299;-71
2021/11/23 06:44:29;;;;;;;28.27;23.05;;;7.40;99.90;;;;;;5093803;28;20224;-71
2021/11/23 06:47:00;;;;;;;28.00;22.88;;;7.20;99.90;;;;;;5089819;28;20333;-70
2021/11/23 06:49:31;;;;;;;26.75;22.55;;;7.30;99.90;;;;;;5089583;28;20205;-70
2021/11/23 06:52:02;;;;;;;27.80;22.73;;;7.30;99.90;;;;;;5089205;28;20566;-70
2021/11/23 06:54:35;;;;;;;25.10;22.33;;;7.30;99.90;;;;;;5100200;28;20209;-70
2021/11/23 06:57:06;;;;;;;24.13;21.63;;;7.20;99.90;;;;;;5098245;28;20219;-71
2021/11/23 06:59:39;;;;;;;24.88;21.17;;;7.30;99.90;;;;;;5092498;28;20224;-71
2021/11/23 07:02:11;;;;;;;27.83;21.95;;;7.30;99.90;;;;;;5088477;28;20232;-71
2021/11/23 07:04:42;;;;;;;24.70;19.48;;;7.40;99.90;;;;;;5091059;28;20262;-71
2021/11/23 07:07:13;;;;;;;26.17;21.52;;;7.30;99.90;;;;;;5091557;28;20212;-71
2021/11/23 07:09:48;;;;;;;25.40;21.88;;;7.30;99.90;;;;;;5091952;28;20261;-71
2021/11/23 07:12:19;;;;;;;27.60;20.90;;;7.30;99.90;;;;;;5091554;28;20213;-70
2021/11/23 07:14:49;;;;;;;23.48;20.50;;;7.30;99.90;;;;;;5090878;28;20230;-69
2021/11/23 07:17:21;;;;;;;25.75;21.02;;;7.40;99.90;;;;;;5087500;28;20228;-70
2021/11/23 07:19:52;;;;;;;25.80;22.90;;;7.40;99.90;;;;;;5094710;28;20542;-71
2021/11/23 07:22:24;;;;;;;25.13;22.42;;;7.40;99.90;;;;;;5089156;28;20273;-71
2021/11/23 07:33:21;;;;;;;20.00;16.10;;;7.20;99.90;;;;;;5005858;28;20364;-78
2021/11/23 07:35:52;;;;;;;20.20;15.27;;;7.20;99.90;;;;;;5090021;28;20651;-72
2021/11/23 07:38:23;;;;;;;17.45;14.82;;;7.20;99.90;;;;;;5088278;28;20209;-67
2021/11/23 07:40:58;;;;;;;21.20;16.58;;;7.20;99.90;;;;;;5090316;28;20648;-76
2021/11/23 07:43:42;;;;;;;19.02;16.63;;;7.20;99.90;;;;;;5086600;28;20212;-75
2021/11/23 07:50:37;;;;;;;20.67;18.42;;;7.20;99.90;;;;;;5067414;28;20291;-73
2021/11/23 07:53:09;;;;;;;22.60;18.95;;;7.20;99.90;;;;;;5100925;28;20232;-71
2021/11/23 07:55:40;;;;;;;24.42;18.67;;;7.30;99.90;;;;;;5083788;28;20218;-71
2021/11/23 07:58:11;;;;;;;26.95;19.85;;;7.30;99.90;;;;;;5087712;28;20208;-71
2021/11/23 08:00:48;;;;;;;22.33;19.92;;;7.30;99.90;;;;;;5093465;28;20497;-71
2021/11/23 08:03:19;;;;;;;23.20;19.95;;;7.30;99.90;;;;;;5093240;28;20220;-70
2021/11/23 08:05:52;;;;;;;22.30;19.50;;;7.30;99.90;;;;;;5088234;28;20292;-72
2021/11/23 08:21:01;;;;;;;21.42;17.55;;;7.40;99.90;;;;;;5038184;28;20350;-74
2021/11/23 08:23:35;;;;;;;22.00;18.75;;;7.40;99.90;;;;;;5087116;28;20237;-73
2021/11/23 08:26:06;;;;;;;19.25;17.23;;;7.40;99.90;;;;;;5089493;28;20208;-72
2021/11/23 08:28:38;;;;;;;22.37;18.27;;;7.30;99.90;;;;;;5011691;28;2114748;-71
2021/11/23 08:31:09;;;;;;;21.20;18.20;;;7.30;99.90;;;;;;5087065;28;20211;-70
2021/11/23 08:33:40;;;;;;;19.08;16.58;;;7.30;99.90;;;;;;5085009;28;20232;-72
2021/11/23 08:36:14;;;;;;;24.13;17.85;;;7.20;99.90;;;;;;5086742;28;21624;-71
2021/11/23 08:38:45;;;;;;;18.80;16.75;;;7.20;99.90;;;;;;5085916;28;20208;-71
2021/11/23 08:41:17;;;;;;;19.67;15.80;;;7.20;99.90;;;;;;5090502;28;20219;-71
2021/11/23 08:43:48;;;;;;;18.92;16.90;;;7.20;99.90;;;;;;5082475;28;20291;-71
2021/11/23 08:46:18;;;;;;;18.90;17.00;;;7.10;99.90;;;;;;5089109;28;20212;-71
2021/11/23 08:48:50;;;;;;;18.38;15.18;;;7.00;99.90;;;;;;5086573;28;20234;-71
2021/11/23 08:51:25;;;;;;;18.85;17.00;;;7.10;99.90;;;;;;5090713;28;20309;-71
2021/11/23 08:53:56;;;;;;;18.67;15.93;;;7.10;99.90;;;;;;5088031;28;20211;-70
2021/11/23 08:56:32;;;;;;;20.20;14.25;;;7.10;99.90;;;;;;5088706;28;20205;-71
2021/11/23 08:59:07;;;;;;;17.73;15.93;;;7.00;99.90;;;;;;5088010;28;20626;-71
2021/11/23 09:01:39;;;;;;;17.80;15.98;;;7.10;99.90;;;;;;5087117;28;20216;-71
2021/11/23 09:04:10;;;;;;;18.10;15.70;;;7.00;99.90;;;;;;5087822;28;20211;-71
2021/11/23 09:06:43;;;;;;;17.95;15.23;;;7.10;99.90;;;;;;5086792;28;20231;-70
2021/11/23 09:09:14;;;;;;;17.15;14.70;;;7.10;99.90;;;;;;5091099;28;20212;-71
2021/11/23 09:11:45;;;;;;;15.98;14.27;;;7.10;99.90;;;;;;5086750;28;20204;-70
2021/11/23 09:14:16;;;;;;;14.60;13.10;;;7.10;99.90;;;;;;5088909;28;20227;-70
2021/11/23 09:16:47;;;;;;;14.10;12.63;;;7.10;99.90;;;;;;5087925;28;20694;-70
2021/11/23 09:19:18;;;;;;;14.27;11.98;;;7.10;99.90;;;;;;5088926;28;20269;-71
2021/11/23 09:21:51;;;;;;;14.35;11.93;;;7.10;99.90;;;;;;5089738;28;20224;-71
2021/11/23 09:24:22;;;;;;;13.13;11.82;;;7.10;99.90;;;;;;5090478;28;20212;-71
2021/11/23 09:26:54;;;;;;;11.35;10.15;;;7.10;99.90;;;;;;5093734;28;20212;-71
2021/11/23 09:29:25;;;;;;;12.60;9.07;;;7.20;99.90;;;;;;5086043;28;20238;-71
2021/11/23 09:31:57;;;;;;;12.07;9.50;;;7.20;99.90;;;;;;5085883;28;20236;-72
2021/11/23 09:34:28;;;;;;;12.20;10.45;;;7.20;99.90;;;;;;5088977;28;20750;-72
2021/11/23 09:37:00;;;;;;;13.55;11.80;;;7.20;99.90;;;;;;5087570;28;20220;-71
2021/11/23 09:39:31;;;;;;;13.10;11.50;;;7.30;99.90;;;;;;5088100;28;20220;-71
2021/11/23 09:42:06;;;;;;;13.50;10.93;;;7.20;99.90;;;;;;5089093;28;20226;-70
2021/11/23 09:44:38;;;;;;;11.50;9.98;;;7.20;99.90;;;;;;5089028;28;20251;-73
2021/11/23 09:47:14;;;;;;;10.93;9.48;;;7.10;99.90;;;;;;5088519;28;20212;-73
2021/11/23 09:49:45;;;;;;;9.68;8.60;;;7.10;99.90;;;;;;5089131;28;20215;-74
2021/11/23 09:52:17;;;;;;;9.50;8.48;;;7.20;99.90;;;;;;5087433;28;20211;-72
2021/11/23 09:54:49;;;;;;;11.45;9.15;;;7.20;99.90;;;;;;5090176;28;20244;-72
2021/11/23 09:57:20;;;;;;;11.15;9.95;;;7.20;99.90;;;;;;5086865;28;20227;-73
2021/11/23 09:59:51;;;;;;;12.90;10.70;;;7.30;99.90;;;;;;5088726;28;20321;-72
2021/11/23 10:02:27;;;;;;;10.63;9.63;;;7.30;99.90;;;;;;5086017;28;20307;-72
2021/11/23 10:05:02;;;;;;;11.30;9.13;;;7.30;99.90;;;;;;5090609;28;20244;-72
2021/11/23 10:07:43;;;;;;;10.43;8.35;;;7.40;99.90;;;;;;5085070;28;20288;-72
2021/11/23 10:10:18;;;;;;;10.88;9.57;;;7.50;99.90;;;;;;5088401;28;20226;-71
2021/11/23 10:12:54;;;;;;;11.90;8.98;;;7.50;99.90;;;;;;5085665;28;20294;-70
2021/11/23 10:15:27;;;;;;;11.38;10.30;;;7.50;99.90;;;;;;5087932;28;20291;-74
2021/11/23 10:18:10;;;;;;;10.57;9.48;;;7.50;99.90;;;;;;5088879;28;20224;-70
2021/11/23 10:20:43;;;;;;;10.05;8.98;;;7.60;99.90;;;;;;5083476;28;20231;-73
2021/11/23 10:23:26;;;;;;;11.00;9.57;;;7.60;99.90;;;;;;5085492;28;20239;-78
2021/11/23 10:26:02;;;;;;;12.00;10.35;;;7.60;99.90;;;;;;5093919;28;20213;-72
2021/11/23 10:48:49;;;;;;;10.95;9.82;;;7.90;99.90;;;;;;5089980;28;20200;-76
2021/11/23 11:06:55;;;;;;;13.10;10.80;;;7.90;99.90;;;;;;5075270;28;20236;-76
2021/11/23 11:09:34;;;;;;;12.25;11.05;;;7.90;99.90;;;;;;5083533;28;20217;-76
2021/11/23 11:28:53;;;;;;;10.77;9.65;;;8.10;99.90;;;;;;5094234;28;20269;-77
2021/11/23 11:59:06;;;;;;;9.25;8.18;;;8.10;99.90;;;;;;5052871;28;20231;-76
2021/11/23 12:13:14;;;;;;;9.73;8.80;;;8.10;99.90;;;;;;5094829;28;20330;-75
2021/11/23 12:19:48;;;;;;;8.90;8.05;;;8.00;99.90;;;;;;5092732;28;20219;-76
2021/11/23 12:23:44;;;;;;;8.98;8.00;;;8.00;99.90;;;;;;5085610;28;20315;-81
2021/11/23 12:30:43;;;;;;;8.95;8.02;;;8.10;99.90;;;;;;5144675;27;20377;-75
2021/11/23 12:33:14;;;;;;;9.75;8.77;;;8.00;99.90;;;;;;5114021;28;20574;-78
2021/11/23 12:35:45;;;;;;;9.15;7.72;;;8.00;99.90;;;;;;5119866;27;20210;-77
2021/11/23 12:38:45;;;;;;;9.02;8.10;;;8.10;99.90;;;;;;5114152;28;20225;-78
2021/11/23 12:41:18;;;;;;;10.18;8.90;;;8.10;99.90;;;;;;5105198;28;20632;-80
2021/11/23 12:43:49;;;;;;;14.60;8.70;;;8.10;99.90;;;;;;5109424;27;20220;-77
2021/11/23 12:46:52;;;;;;;9.93;7.78;;;8.00;99.90;;;;;;5116269;28;20758;-77
2021/11/23 12:49:36;;;;;;;9.50;7.95;;;8.00;99.90;;;;;;5113129;28;20303;-76
2021/11/23 12:52:10;;;;;;;9.00;7.70;;;7.90;99.90;;;;;;5117976;28;20203;-76
2021/11/23 12:54:48;;;;;;;8.75;7.47;;;7.90;99.90;;;;;;5118115;28;20244;-80
2021/11/23 12:57:24;;;;;;;8.35;7.55;;;7.90;99.90;;;;;;5113700;28;20218;-75
2021/11/23 13:00:03;;;;;;;9.75;7.40;;;7.90;99.90;;;;;;5108114;28;20343;-75
2021/11/23 13:02:43;;;;;;;7.78;7.00;;;7.90;99.90;;;;;;5115212;28;20227;-76
2021/11/23 13:05:17;;;;;;;7.85;7.05;;;7.90;99.90;;;;;;5115328;28;20284;-73
2021/11/23 13:07:51;;;;;;;7.95;7.15;;;7.90;99.90;;;;;;5107043;28;20219;-72
2021/11/23 13:11:17;;;;;;;7.45;6.30;;;7.90;99.90;;;;;;5106732;28;20337;-77
2021/11/23 13:18:29;;;;;;;6.00;5.47;;;7.90;99.90;;;;;;5099376;28;20339;-73
2021/11/23 13:21:54;;;;;;;6.70;5.47;;;7.90;99.90;;;;;;5106068;28;20337;-79
2021/11/23 13:28:43;;;;;;;6.63;6.03;;;7.90;99.90;;;;;;4996230;28;20576;-74
2021/11/23 13:31:53;;;;;;;7.20;6.50;;;7.90;99.90;;;;;;5081821;28;20229;-74
2021/11/23 13:34:26;;;;;;;7.03;5.40;;;7.80;99.90;;;;;;5082877;28;20269;-72
2021/11/23 13:37:01;;;;;;;6.20;5.60;;;7.70;99.90;;;;;;5081377;28;20209;-73
2021/11/23 13:39:33;;;;;;;6.38;5.78;;;7.70;99.90;;;;;;5083846;28;20213;-75
2021/11/23 13:42:05;;;;;;;6.10;5.50;;;7.70;99.90;;;;;;5072879;28;20277;-79
2021/11/23 13:44:36;;;;;;;6.80;6.10;;;7.80;99.90;;;;;;5096323;28;20219;-76
2021/11/23 13:47:21;;;;;;;7.30;6.55;;;7.80;99.90;;;;;;5103654;28;20208;-80
2021/11/23 13:50:06;;;;;;;7.03;5.85;;;7.80;99.90;;;;;;5101412;28;20391;-76
2021/11/23 13:52:37;;;;;;;6.88;6.10;;;7.90;99.90;;;;;;5106388;27;20211;-73
2021/11/23 13:55:12;;;;;;;6.13;5.53;;;7.90;99.90;;;;;;5097002;28;20230;-78
2021/11/23 13:57:55;;;;;;;8.40;7.00;;;7.90;99.90;;;;;;5097959;28;20318;-74
2021/11/23 14:00:33;;;;;;;8.48;6.32;;;8.00;99.90;;;;;;5078823;28;20634;-71
2021/11/23 14:03:08;;;;;;;8.88;7.07;;;8.00;99.90;;;;;;5081128;28;20286;-73
2021/11/23 14:05:42;;;;;;;6.20;5.60;;;8.00;99.90;;;;;;5081408;28;20269;-69
2021/11/23 14:08:14;;;;;;;8.23;6.32;;;8.00;99.90;;;;;;5082691;28;20236;-79
2021/11/23 14:11:05;;;;;;;6.70;6.10;;;8.00;99.90;;;;;;5076318;28;20229;-81
2021/11/23 14:13:51;;;;;;;7.70;6.75;;;8.00;99.90;;;;;;5085418;28;20236;-77
2021/11/23 14:16:31;;;;;;;7.45;6.63;;;8.00;99.90;;;;;;5080564;28;20223;-77
2021/11/23 14:19:10;;;;;;;8.82;6.50;;;8.00;99.90;;;;;;5077205;28;20697;-76
2021/11/23 14:21:53;;;;;;;6.57;5.28;;;8.00;99.90;;;;;;5076688;28;20281;-73
2021/11/23 14:24:34;;;;;;;6.88;5.22;;;8.00;99.90;;;;;;5081768;28;20217;-78
2021/11/23 14:27:12;;;;;;;5.53;5.03;;;8.00;99.90;;;;;;5079417;28;20223;-78
2021/11/23 14:30:17;;;;;;;65.85;14.05;;;7.90;99.90;;;;;;5079389;28;20239;-76
2021/11/23 14:59:02;;;;;;;6.80;2.37;;;7.90;99.90;;;;;;6013405;22;5198563;-77
2021/11/23 15:01:33;;;;;;;214.73;31.63;;;8.00;99.90;;;;;;6155910;23;20411;-78
2021/11/23 15:04:07;;;;;;;9.57;3.58;;;8.00;99.90;;;;;;6150557;23;20577;-75
2021/11/23 15:06:38;;;;;;;2.13;1.73;;;8.00;99.90;;;;;;6155001;23;20206;-74
2021/11/23 15:09:11;;;;;;;1.85;1.67;;;8.00;99.90;;;;;;6155665;23;20662;-75
2021/11/23 15:11:44;;;;;;;2.00;1.90;;;8.00;99.90;;;;;;6155729;23;20193;-80
2021/11/23 15:14:21;;;;;;;1.75;1.65;;;8.00;99.90;;;;;;6159078;23;20190;-75
2021/11/23 15:16:52;;;;;;;1.80;1.70;;;8.00;99.90;;;;;;6157548;23;20192;-76
2021/11/23 15:19:25;;;;;;;2.05;1.75;;;7.90;99.90;;;;;;6160361;23;20702;-84
2021/11/23 15:21:58;;;;;;;2.13;1.92;;;8.00;99.90;;;;;;6155558;23;20183;-76
2021/11/23 15:24:36;;;;;;;1.88;1.75;;;7.90;99.90;;;;;;6154228;23;20186;-76
2021/11/23 15:27:27;;;;;;;3.15;2.85;;;7.90;99.90;;;;;;6155805;23;20199;-80
2021/11/23 15:30:00;;;;;;;2.78;2.30;;;7.90;99.90;;;;;;6152682;23;20197;-75
2021/11/23 15:32:31;;;;;;;1.75;1.65;;;7.90;99.90;;;;;;6155916;23;20542;-78
2021/11/23 15:35:08;;;;;;;2.20;2.10;;;7.90;99.90;;;;;;6164594;23;20194;-81
2021/11/23 15:37:39;;;;;;;21.13;5.13;;;7.90;99.90;;;;;;6160962;23;20196;-75
2021/11/23 15:40:12;;;;;;;1.83;1.73;;;7.90;99.90;;;;;;6159553;23;20270;-77
2021/11/23 15:42:43;;;;;;;2.25;2.05;;;8.00;99.90;;;;;;6156577;23;20466;-78
2021/11/23 15:45:16;;;;;;;2.20;2.10;;;8.00;99.90;;;;;;6159581;23;20201;-77
2021/11/23 15:47:46;;;;;;;2.78;1.90;;;8.00;99.90;;;;;;6157616;23;20203;-79
2021/11/23 15:50:22;;;;;;;4.38;2.05;;;8.00;99.90;;;;;;6154690;23;20187;-80
2021/11/23 15:52:53;;;;;;;1.83;1.73;;;8.10;99.90;;;;;;6150151;23;20194;-79
2021/11/23 15:55:24;;;;;;;2.00;1.70;;;8.10;99.90;;;;;;6153877;23;20244;-77
2021/11/23 15:57:55;;;;;;;1.60;1.50;;;8.10;99.90;;;;;;6146812;23;20217;-83
2021/11/23 16:00:43;;;;;;;3.35;1.92;;;8.20;99.90;;;;;;6150059;23;20671;-80
2021/11/23 16:41:18;;;;;;;2.65;1.40;;;8.50;99.90;;;;;;6133105;23;20341;-75
2021/11/23 16:43:51;;;;;;;1.85;1.70;;;8.70;99.90;;;;;;6150231;23;20179;-70
2021/11/23 16:46:22;;;;;;;79.55;14.55;;;8.70;99.90;;;;;;6148745;23;20262;-69
2021/11/23 16:48:53;;;;;;;5.80;2.25;;;8.80;99.90;;;;;;6146924;23;20258;-70
2021/11/23 16:51:25;;;;;;;2.28;1.60;;;8.80;99.90;;;;;;6147726;23;20187;-70